Time;durP1;ratioP1;P1;durP2;ratioP2;P2;SDS_P1;SDS_P2;PMS_P1;PMS_P2;Temp;Humidity;BMP_temperature;BMP_pressure;BME280_temperature;BME280_humidity;BME280_pressure;Samples;Min_cycle;Max_cycle;Signal;HPM_P1;HPM_P2
2021/10/25 00:02:12;;;;;;;5.17;4.77;;;;;;;5.61;72.57;101009.75;4858395;29;20418;-75
2021/10/25 00:04:37;;;;;;;5.20;4.80;;;;;;;5.58;73.26;101004.78;4860917;29;20417;-75
2021/10/25 00:07:03;;;;;;;5.03;4.53;;;;;;;5.55;73.43;101001.66;4862362;29;20434;-75
2021/10/25 00:09:28;;;;;;;4.47;4.13;;;;;;;5.53;72.89;101003.72;4860664;29;20438;-75
2021/10/25 00:11:55;;;;;;;5.13;4.70;;;;;;;5.50;72.04;101004.91;4860627;29;20453;-76
2021/10/25 00:14:20;;;;;;;4.40;4.00;;;;;;;5.46;72.08;100994.78;4862260;29;20413;-76
2021/10/25 00:16:47;;;;;;;4.95;4.55;;;;;;;5.44;72.18;100992.28;4860493;29;20398;-76
2021/10/25 00:19:16;;;;;;;4.85;4.20;;;;;;;5.41;72.81;100990.00;4852161;29;20418;-77
2021/10/25 00:21:44;;;;;;;6.55;3.88;;;;;;;5.33;72.40;100983.97;4852392;29;20474;-76
2021/10/25 00:24:11;;;;;;;4.03;3.65;;;;;;;5.20;73.34;100985.50;4860968;29;20570;-76
2021/10/25 00:26:36;;;;;;;3.97;3.67;;;;;;;5.23;73.60;100987.00;4861969;29;20438;-76
2021/10/25 00:29:03;;;;;;;4.60;4.10;;;;;;;5.23;73.37;100987.84;4861614;29;20504;-76
2021/10/25 00:31:28;;;;;;;3.83;3.47;;;;;;;5.26;73.50;100983.91;4861856;29;20410;-76
2021/10/25 00:33:53;;;;;;;4.77;4.27;;;;;;;5.30;73.51;100982.50;4862022;29;20703;-76
2021/10/25 00:36:19;;;;;;;4.00;3.63;;;;;;;5.30;73.39;100982.50;4855651;29;20481;-76
2021/10/25 00:38:45;;;;;;;4.57;4.15;;;;;;;5.30;73.40;100987.03;4861080;29;20414;-76
2021/10/25 00:41:10;;;;;;;4.13;3.73;;;;;;;5.34;73.97;100988.28;4861539;29;20574;-76
2021/10/25 00:43:39;;;;;;;4.32;3.92;;;;;;;5.37;72.84;100983.34;4861247;29;20422;-76
2021/10/25 00:46:08;;;;;;;4.05;3.53;;;;;;;5.39;72.80;100989.38;4861243;29;20434;-76
2021/10/25 00:48:34;;;;;;;4.93;3.90;;;;;;;5.38;72.65;100985.00;4860748;29;20426;-77
2021/10/25 00:51:02;;;;;;;4.70;4.03;;;;;;;5.36;72.77;100981.69;4861466;29;20414;-76
2021/10/25 00:53:27;;;;;;;3.90;3.60;;;;;;;5.35;73.27;100982.72;4860683;29;20435;-77
2021/10/25 00:55:53;;;;;;;4.43;4.03;;;;;;;5.36;73.66;100986.25;4861501;29;20409;-76
2021/10/25 00:58:19;;;;;;;3.90;3.60;;;;;;;5.37;73.40;100985.22;4860824;29;20482;-76
2021/10/25 01:00:44;;;;;;;3.38;3.08;;;;;;;5.36;73.66;100986.25;4861509;29;20508;-76
2021/10/25 01:03:10;;;;;;;4.53;3.90;;;;;;;5.37;73.44;100986.03;4859371;29;20432;-76
2021/10/25 01:05:36;;;;;;;3.63;3.33;;;;;;;5.36;73.45;100991.63;4861416;29;20744;-76
2021/10/25 01:08:03;;;;;;;4.57;4.15;;;;;;;5.37;74.08;100980.66;4860929;29;20454;-76
2021/10/25 01:10:29;;;;;;;4.38;3.67;;;;;;;5.41;73.99;100995.38;4861095;29;20426;-76
2021/10/25 01:12:55;;;;;;;4.47;3.55;;;;;;;5.42;74.42;100994.34;4861421;29;20402;-76
2021/10/25 01:15:20;;;;;;;5.20;2.95;;;;;;;5.45;74.42;100993.13;4857780;29;20430;-76
2021/10/25 01:17:56;;;;;;;4.07;3.77;;;;;;;5.48;75.01;100993.53;4861209;29;20791;-76
2021/10/25 01:20:26;;;;;;;3.88;3.17;;;;;;;5.47;74.54;100985.66;4861520;29;20405;-76
2021/10/25 01:22:52;;;;;;;3.70;3.38;;;;;;;5.48;74.56;100985.47;4861040;29;20453;-76
2021/10/25 01:25:18;;;;;;;3.33;3.13;;;;;;;5.50;74.91;100988.78;4861067;29;20766;-76
2021/10/25 01:27:44;;;;;;;3.58;3.10;;;;;;;5.53;74.93;100990.28;4844573;29;20497;-76
2021/10/25 01:30:10;;;;;;;3.50;3.17;;;;;;;5.52;74.57;100989.44;4858890;29;21005;-77
2021/10/25 01:32:35;;;;;;;3.53;3.22;;;;;;;5.52;74.08;100989.44;4858852;29;20957;-76
2021/10/25 01:35:01;;;;;;;5.17;3.63;;;;;;;5.50;74.12;100986.09;4860968;29;20435;-76
2021/10/25 01:37:27;;;;;;;3.37;3.00;;;;;;;5.50;73.84;100999.53;4860903;29;20851;-76
2021/10/25 01:39:52;;;;;;;3.50;3.20;;;;;;;5.49;73.84;100997.06;4856753;29;20411;-76
2021/10/25 01:42:17;;;;;;;2.92;2.72;;;;;;;5.46;73.53;100995.63;4860505;29;20418;-77
2021/10/25 01:44:46;;;;;;;3.40;3.20;;;;;;;5.45;73.20;100993.94;4858990;29;20854;-76
2021/10/25 01:47:12;;;;;;;9.00;3.20;;;;;;;5.44;73.29;100994.13;4860375;29;20406;-76
2021/10/25 01:49:37;;;;;;;4.03;3.10;;;;;;;5.43;73.43;100987.94;4860462;29;20449;-76
2021/10/25 01:52:03;;;;;;;4.90;3.30;;;;;;;5.39;72.95;100992.06;4857026;29;20416;-76
2021/10/25 01:54:28;;;;;;;3.17;2.97;;;;;;;5.37;72.00;100996.78;4853248;29;20426;-76
2021/10/25 01:56:53;;;;;;;3.33;3.10;;;;;;;5.34;72.33;101004.41;4860505;29;20473;-76
2021/10/25 01:59:22;;;;;;;3.43;3.23;;;;;;;5.33;73.17;101003.59;4859303;29;20425;-76
2021/10/25 02:01:47;;;;;;;3.45;3.15;;;;;;;5.32;73.42;100995.72;4859203;29;20422;-76
2021/10/25 02:04:12;;;;;;;6.97;3.60;;;;;;;5.33;73.47;100995.53;4860457;29;20406;-76
2021/10/25 02:06:38;;;;;;;3.40;3.10;;;;;;;5.31;73.48;100994.88;4860386;29;20878;-76
2021/10/25 02:09:04;;;;;;;3.30;3.00;;;;;;;5.32;73.73;100991.19;4858982;29;20505;-76
2021/10/25 02:11:30;;;;;;;3.55;3.35;;;;;;;5.30;73.76;100982.50;4856883;29;20423;-76
2021/10/25 02:13:56;;;;;;;3.45;3.17;;;;;;;5.26;73.88;100973.16;4858931;29;20433;-76
2021/10/25 02:16:21;;;;;;;3.40;3.00;;;;;;;5.24;73.34;100984.09;4860072;29;20703;-76
2021/10/25 02:18:54;;;;;;;4.23;3.47;;;;;;;5.23;73.37;100978.94;4859812;29;20414;-76
2021/10/25 02:21:19;;;;;;;3.72;3.17;;;;;;;5.21;72.76;100980.97;4855822;29;20458;-76
2021/10/25 02:23:44;;;;;;;3.40;3.15;;;;;;;5.19;72.95;100978.50;4859541;29;20426;-76
2021/10/25 02:26:10;;;;;;;3.30;3.10;;;;;;;5.16;72.47;100988.81;4858625;29;20513;-76
2021/10/25 02:28:35;;;;;;;3.90;3.03;;;;;;;5.14;72.76;100982.78;4858817;29;20432;-76
2021/10/25 02:31:03;;;;;;;3.87;3.47;;;;;;;5.10;73.17;100968.09;4859924;29;20437;-76
2021/10/25 02:33:29;;;;;;;3.75;3.45;;;;;;;5.04;73.70;100964.34;4859399;29;20417;-76
2021/10/25 02:35:54;;;;;;;3.53;3.23;;;;;;;5.04;74.28;100968.88;4858808;29;20759;-76
2021/10/25 02:38:19;;;;;;;3.20;2.90;;;;;;;5.05;73.18;100959.78;4859928;29;20410;-76
2021/10/25 02:40:46;;;;;;;3.17;2.92;;;;;;;5.03;73.75;100965.38;4860264;29;20417;-76
2021/10/25 02:43:11;;;;;;;3.40;3.10;;;;;;;5.01;73.16;100956.66;4859801;29;20411;-76
2021/10/25 02:45:37;;;;;;;4.20;2.93;;;;;;;5.02;72.36;100954.81;4858607;29;20441;-76
2021/10/25 02:48:03;;;;;;;3.50;2.73;;;;;;;4.98;72.54;100965.13;4859767;29;20407;-76
2021/10/25 02:50:29;;;;;;;4.95;3.35;;;;;;;4.96;73.02;100951.06;4856188;29;20430;-76
2021/10/25 02:52:54;;;;;;;3.35;3.15;;;;;;;4.95;73.33;100951.25;4859748;29;20414;-76
2021/10/25 02:55:21;;;;;;;3.72;3.42;;;;;;;4.93;73.10;100956.00;4859575;29;20542;-76
2021/10/25 02:57:46;;;;;;;3.20;2.60;;;;;;;4.90;73.30;100954.53;4859481;29;20500;-76
2021/10/25 03:00:16;;;;;;;3.30;2.80;;;;;;;4.74;73.30;100954.84;4859009;29;20410;-76
2021/10/25 03:02:43;;;;;;;4.13;2.87;;;;;;;4.66;73.63;100963.84;4857971;29;20813;-76
2021/10/25 03:05:09;;;;;;;3.30;3.10;;;;;;;4.66;74.28;100958.50;4859538;29;20406;-76
2021/10/25 03:07:35;;;;;;;4.18;2.80;;;;;;;4.70;74.03;100961.63;4859418;29;20867;-76
2021/10/25 03:10:00;;;;;;;8.47;3.17;;;;;;;4.74;74.01;100959.38;4859082;29;20430;-76
2021/10/25 03:12:26;;;;;;;4.43;4.00;;;;;;;4.76;74.22;100957.31;4857403;29;20430;-77
2021/10/25 03:14:53;;;;;;;6.53;3.67;;;;;;;4.75;74.48;100953.78;4862867;29;20799;-76
2021/10/25 03:17:18;;;;;;;5.35;3.60;;;;;;;4.78;74.50;100949.88;4859129;29;20569;-76
2021/10/25 03:19:45;;;;;;;7.17;4.03;;;;;;;4.78;74.44;100949.88;4859334;29;20982;-76
2021/10/25 03:22:16;;;;;;;7.10;3.85;;;;;;;4.79;74.50;100936.28;4859450;29;20403;-76
2021/10/25 03:24:43;;;;;;;5.07;3.53;;;;;;;4.80;74.08;100926.38;4850514;29;20406;-77
2021/10/25 03:27:09;;;;;;;4.30;3.47;;;;;;;4.81;74.50;100923.47;4856331;29;20443;-76
2021/10/25 03:29:34;;;;;;;4.50;3.20;;;;;;;4.85;74.98;100926.59;4859113;29;20434;-76
2021/10/25 03:32:00;;;;;;;6.43;3.67;;;;;;;4.88;75.01;100931.56;4859384;29;20406;-76
2021/10/25 03:34:31;;;;;;;5.60;3.28;;;;;;;4.95;74.93;100925.22;4859151;29;20890;-76
2021/10/25 03:36:57;;;;;;;3.08;2.88;;;;;;;4.98;74.58;100924.84;4858217;29;20766;-76
2021/10/25 03:39:25;;;;;;;6.17;3.00;;;;;;;5.01;74.19;100931.66;4860490;29;20509;-76
2021/10/25 03:41:52;;;;;;;6.70;4.28;;;;;;;4.99;73.64;100936.41;4862539;29;20444;-76
2021/10/25 03:44:32;;;;;;;2.85;2.60;;;;;;;4.92;72.94;100943.59;4862112;29;20779;-76
2021/10/25 03:47:04;;;;;;;3.22;2.92;;;;;;;4.84;73.68;100946.44;4862659;29;20426;-76
2021/10/25 03:51:58;;;;;;;3.33;3.08;;;;;;;4.61;73.60;100923.31;4860018;29;20420;-76
2021/10/25 03:59:41;;;;;;;3.95;2.55;;;;;;;4.46;74.70;100921.75;4861945;29;20414;-76
2021/10/25 04:26:54;;;;;;;4.47;3.60;;;;;;;4.72;75.14;100920.13;4847719;29;20389;-76
2021/10/25 04:29:24;;;;;;;6.53;5.28;;;;;;;4.69;74.59;100925.88;4860832;29;20441;-77
2021/10/25 04:31:49;;;;;;;14.45;12.13;;;;;;;4.67;75.08;100922.56;4861970;29;20410;-76
2021/10/25 04:34:14;;;;;;;19.03;13.80;;;;;;;4.65;74.82;100932.66;4846717;29;20429;-76
2021/10/25 04:36:40;;;;;;;13.03;9.00;;;;;;;4.67;75.37;100932.47;4860301;29;20444;-77
2021/10/25 04:39:09;;;;;;;14.05;10.07;;;;;;;4.66;75.68;100926.28;4858547;29;20418;-76
2021/10/25 04:41:38;;;;;;;14.25;9.73;;;;;;;4.76;75.56;100938.53;4861884;29;20406;-76
2021/10/25 04:44:04;;;;;;;12.43;8.93;;;;;;;4.78;75.04;100939.13;4866795;29;20421;-76
2021/10/25 04:46:29;;;;;;;11.40;8.20;;;;;;;4.78;74.94;100920.34;4861617;29;20428;-76
2021/10/25 04:48:54;;;;;;;7.53;5.83;;;;;;;4.77;74.42;100927.59;4859862;29;20426;-76
2021/10/25 04:51:19;;;;;;;11.27;5.57;;;;;;;4.67;74.08;100916.38;4858878;29;20782;-76
2021/10/25 04:53:48;;;;;;;7.10;4.50;;;;;;;4.65;74.04;100911.19;4858797;29;20798;-76
2021/10/25 04:56:13;;;;;;;8.57;4.15;;;;;;;4.64;74.37;100914.06;4857963;29;20403;-76
2021/10/25 04:58:38;;;;;;;5.43;3.90;;;;;;;4.63;74.31;100915.09;4861159;29;20418;-76
2021/10/25 05:01:04;;;;;;;4.60;3.13;;;;;;;4.60;74.40;100915.50;4854137;29;20898;-76
2021/10/25 05:03:32;;;;;;;7.60;3.57;;;;;;;4.61;74.36;100917.16;4858259;29;20410;-76
2021/10/25 05:05:58;;;;;;;4.03;3.28;;;;;;;4.59;73.30;100927.25;4843574;29;20478;-76
2021/10/25 05:08:28;;;;;;;2.83;2.63;;;;;;;4.53;73.76;100917.28;4858161;29;20430;-75
2021/10/25 05:10:59;;;;;;;2.90;2.72;;;;;;;4.50;73.70;100910.47;4857646;29;20434;-75
2021/10/25 05:13:24;;;;;;;9.98;2.70;;;;;;;4.43;73.47;100916.78;4860605;29;20439;-76
2021/10/25 05:15:53;;;;;;;7.57;2.70;;;;;;;4.41;73.73;100913.47;4861470;29;20411;-76
2021/10/25 05:18:18;;;;;;;6.65;2.85;;;;;;;4.39;74.00;100904.78;4871795;29;20445;-76
2021/10/25 05:20:45;;;;;;;3.33;2.50;;;;;;;4.39;73.90;100908.28;4861081;29;20433;-76
2021/10/25 05:23:10;;;;;;;6.55;3.47;;;;;;;4.33;73.89;100906.38;4852292;29;20421;-76
2021/10/25 05:25:36;;;;;;;3.37;2.70;;;;;;;4.32;74.48;100917.31;4834305;29;20426;-76
2021/10/25 05:28:02;;;;;;;4.10;2.70;;;;;;;4.35;74.27;100912.38;4856160;29;20501;-75
2021/10/25 05:30:27;;;;;;;3.93;2.57;;;;;;;4.32;74.46;100907.41;4836655;29;20786;-76
2021/10/25 05:32:53;;;;;;;3.90;2.27;;;;;;;4.30;74.26;100911.31;4854710;29;20414;-76
2021/10/25 05:35:19;;;;;;;4.80;2.67;;;;;;;4.30;74.50;100922.03;4855702;29;20433;-77
2021/10/25 05:37:44;;;;;;;5.67;2.57;;;;;;;4.31;74.47;100913.81;4861091;29;20885;-76
2021/10/25 05:40:10;;;;;;;3.70;3.07;;;;;;;4.33;74.79;100919.81;4860597;29;20950;-76
2021/10/25 05:42:36;;;;;;;4.65;2.83;;;;;;;4.37;74.62;100917.56;4860409;29;20433;-76
2021/10/25 05:45:04;;;;;;;18.00;4.60;;;;;;;4.39;74.66;100927.06;4858106;29;20430;-76
2021/10/25 05:47:29;;;;;;;8.25;4.15;;;;;;;4.45;75.21;100925.47;4858322;29;20437;-76
2021/10/25 05:49:54;;;;;;;16.33;4.63;;;;;;;4.50;75.24;100923.03;4843755;29;20426;-76
2021/10/25 05:52:20;;;;;;;12.53;3.90;;;;;;;4.49;75.34;100913.31;4855808;29;20427;-76
2021/10/25 05:54:45;;;;;;;11.55;4.03;;;;;;;4.50;75.34;100923.03;4859616;29;20419;-76
2021/10/25 05:57:12;;;;;;;12.70;5.03;;;;;;;4.55;75.52;100934.84;4860374;29;20398;-76
2021/10/25 05:59:38;;;;;;;24.13;4.82;;;;;;;4.59;75.23;100933.44;4856826;29;20414;-76
2021/10/25 06:02:52;;;;;;;8.13;4.53;;;;;;;4.62;75.56;100932.22;4840843;29;20426;-75
2021/10/25 06:04:58;;;;;;;5.00;3.22;;;;;;;4.61;75.22;100923.31;4859423;29;20502;-75
2021/10/25 06:07:23;;;;;;;5.25;2.88;;;;;;;4.59;75.45;100920.03;4851232;29;20986;-76
2021/10/25 06:09:49;;;;;;;8.02;3.50;;;;;;;4.58;75.66;100921.03;4864031;29;20437;-76
2021/10/25 06:12:17;;;;;;;5.80;3.35;;;;;;;4.59;75.65;100921.88;4865424;29;20449;-75
2021/10/25 06:14:45;;;;;;;11.57;4.18;;;;;;;4.59;75.71;100914.66;4851185;29;20424;-75
2021/10/25 06:17:22;;;;;;;15.13;3.85;;;;;;;4.59;75.62;100914.66;4860127;29;20636;-76
2021/10/25 06:19:56;;;;;;;9.55;3.92;;;;;;;4.63;75.71;100909.72;4861347;29;20774;-75
2021/10/25 06:22:22;;;;;;;6.97;4.20;;;;;;;4.67;76.21;100906.47;4856916;29;20537;-76
2021/10/25 06:24:48;;;;;;;5.17;3.37;;;;;;;4.70;75.60;100902.56;4858868;29;20914;-75
2021/10/25 06:27:15;;;;;;;7.55;3.72;;;;;;;4.73;76.04;100907.53;4859925;29;20413;-76
2021/10/25 06:29:40;;;;;;;12.38;4.80;;;;;;;4.79;75.68;100911.28;4859400;29;20449;-76
2021/10/25 06:32:06;;;;;;;8.30;5.33;;;;;;;4.81;74.94;100920.78;4859914;29;20410;-76
2021/10/25 06:34:39;;;;;;;10.97;6.70;;;;;;;4.84;74.77;100939.19;4859132;29;20422;-76
2021/10/25 06:37:05;;;;;;;3.45;3.15;;;;;;;4.86;74.73;100944.38;4856928;29;20432;-76
2021/10/25 06:40:14;;;;;;;4.70;2.75;;;;;;;4.83;73.39;100953.66;4859459;29;20437;-76
2021/10/25 06:42:18;;;;;;;6.83;4.23;;;;;;;4.79;73.69;100959.59;4859889;29;20490;-76
2021/10/25 06:44:48;;;;;;;4.70;3.33;;;;;;;4.70;73.26;100956.25;4859451;29;20877;-76
2021/10/25 06:47:13;;;;;;;3.45;3.08;;;;;;;4.68;73.47;100947.53;4859407;29;20422;-77
2021/10/25 06:49:39;;;;;;;5.63;3.35;;;;;;;4.68;74.14;100952.91;4858138;29;20604;-76
2021/10/25 06:52:04;;;;;;;4.43;2.63;;;;;;;4.72;74.51;100946.97;4859368;29;20766;-75
2021/10/25 06:54:29;;;;;;;4.23;2.50;;;;;;;4.77;74.62;100945.56;4859629;29;20403;-75
2021/10/25 06:56:55;;;;;;;3.97;2.00;;;;;;;4.86;74.69;100947.06;4858957;29;20426;-75
2021/10/25 06:59:20;;;;;;;3.63;2.30;;;;;;;4.91;74.43;100940.06;4859902;29;20410;-77
2021/10/25 07:01:45;;;;;;;4.03;2.83;;;;;;;4.98;74.35;100948.16;4859422;29;20409;-76
2021/10/25 07:04:11;;;;;;;5.00;3.13;;;;;;;5.12;74.56;100947.25;4857363;29;20426;-76
2021/10/25 07:06:37;;;;;;;4.73;3.50;;;;;;;5.23;74.80;100941.31;4858829;29;20522;-76
2021/10/25 07:09:04;;;;;;;4.47;3.17;;;;;;;5.37;74.61;100942.22;4858267;29;20501;-76
2021/10/25 07:11:35;;;;;;;10.48;3.60;;;;;;;5.48;74.79;100939.78;4862741;29;20849;-75
2021/10/25 07:14:08;;;;;;;3.22;3.00;;;;;;;5.61;74.88;100944.38;4845747;29;20410;-76
2021/10/25 07:16:46;;;;;;;3.72;3.40;;;;;;;5.72;74.77;100944.66;4859362;29;20414;-75
2021/10/25 07:19:22;;;;;;;2.70;2.50;;;;;;;5.85;74.83;100945.72;4841485;29;20425;-76
2021/10/25 07:22:13;;;;;;;9.35;4.80;;;;;;;6.02;74.65;100945.19;4844913;29;20395;-77
2021/10/25 08:08:39;;;;;;;4.10;3.28;;;;;;;6.71;75.50;100952.91;4858468;29;20422;-77
2021/10/25 08:11:00;;;;;;;6.63;3.90;;;;;;;6.83;75.69;100948.56;4856948;29;20509;-76
2021/10/25 08:13:31;;;;;;;6.47;3.90;;;;;;;6.98;75.36;100942.97;4839710;29;20428;-76
2021/10/25 08:15:58;;;;;;;5.57;3.90;;;;;;;7.11;75.17;100949.13;4872126;29;20516;-76
2021/10/25 08:20:54;;;;;;;5.97;3.63;;;;;;;7.31;75.22;100951.78;4856040;29;20471;-76
2021/10/25 08:23:20;;;;;;;5.77;4.27;;;;;;;7.38;75.34;100941.81;4857338;29;20484;-76
2021/10/25 08:25:45;;;;;;;5.13;4.60;;;;;;;7.45;75.14;100941.78;4854939;29;20464;-76
2021/10/25 08:28:10;;;;;;;5.20;4.70;;;;;;;7.51;74.82;100938.25;4862094;29;20485;-76
2021/10/25 08:30:36;;;;;;;7.40;5.63;;;;;;;7.54;75.62;100935.13;4861869;29;20430;-76
2021/10/25 08:40:39;;;;;;;11.30;8.67;;;;;;;8.09;74.61;100947.94;4861101;29;21112;-76
2021/10/25 08:43:07;;;;;;;13.57;9.27;;;;;;;8.22;74.36;100944.31;4857122;29;20403;-76
2021/10/25 08:45:33;;;;;;;7.90;7.10;;;;;;;8.36;73.36;100948.63;4854156;29;20430;-76
2021/10/25 08:48:03;;;;;;;9.57;8.00;;;;;;;8.54;73.00;100942.44;4861624;29;20410;-76
2021/10/25 08:50:35;;;;;;;8.95;8.05;;;;;;;8.50;72.93;100947.47;4861975;29;20426;-76
2021/10/25 08:53:02;;;;;;;9.88;8.43;;;;;;;8.44;73.83;100945.66;4870622;29;20802;-76
2021/10/25 08:55:28;;;;;;;12.32;9.30;;;;;;;8.56;73.46;100940.38;4858833;29;20797;-76
2021/10/25 08:57:55;;;;;;;12.88;8.32;;;;;;;8.98;72.12;100950.41;4829089;29;20914;-77
2021/10/25 09:00:23;;;;;;;9.20;8.15;;;;;;;8.89;72.22;100938.22;4861744;29;20399;-76
2021/10/25 09:02:59;;;;;;;9.95;8.02;;;;;;;8.77;72.78;100932.69;4861879;29;20418;-74
2021/10/25 09:05:25;;;;;;;11.82;8.10;;;;;;;8.82;72.97;100940.94;4840536;29;20422;-74
2021/10/25 09:08:03;;;;;;;11.77;8.82;;;;;;;9.01;73.07;100936.44;4860167;29;20422;-75
2021/10/25 09:10:44;;;;;;;12.13;8.20;;;;;;;9.19;72.44;100922.91;4844339;29;20914;-75
2021/10/25 09:13:18;;;;;;;9.35;8.27;;;;;;;9.34;72.21;100933.38;4861222;29;20770;-74
2021/10/25 09:16:18;;;;;;;8.90;7.80;;;;;;;9.61;71.71;100931.19;4862073;29;20459;-76
2021/10/25 09:18:43;;;;;;;13.18;8.02;;;;;;;9.85;70.94;100928.38;4829161;29;20914;-76
2021/10/25 09:21:13;;;;;;;10.77;7.88;;;;;;;10.06;70.49;100934.34;4861115;29;20413;-76
2021/10/25 09:23:42;;;;;;;9.73;8.07;;;;;;;10.26;69.91;100924.06;4860453;29;20970;-75
2021/10/25 09:26:13;;;;;;;8.77;7.43;;;;;;;10.40;69.42;100923.66;4860692;29;20411;-76
2021/10/25 09:28:48;;;;;;;10.32;8.20;;;;;;;10.42;69.35;100923.41;4859987;29;20510;-79
2021/10/25 09:31:26;;;;;;;9.70;8.32;;;;;;;10.48;69.88;100925.19;4854914;29;20473;-76
2021/10/25 09:33:52;;;;;;;10.05;7.90;;;;;;;11.17;67.68;100926.28;4860510;29;20402;-76
2021/10/25 09:36:33;;;;;;;10.98;7.22;;;;;;;11.36;67.14;100922.38;4859889;29;20865;-76
2021/10/25 09:39:09;;;;;;;8.50;7.63;;;;;;;11.47;67.29;100918.81;4861078;29;20406;-76
2021/10/25 09:49:56;;;;;;;12.48;6.68;;;;;;;13.86;60.09;100906.16;4858146;29;20440;-76
2021/10/25 09:52:36;;;;;;;7.65;5.63;;;;;;;14.66;56.98;100906.13;4853481;29;20449;-76
2021/10/25 09:55:10;;;;;;;5.25;4.85;;;;;;;14.59;57.46;100899.25;4860472;29;20402;-77
2021/10/25 10:00:19;;;;;;;5.03;4.57;;;;;;;13.73;60.17;100898.38;4858885;29;20422;-76
2021/10/25 10:02:47;;;;;;;5.63;5.05;;;;;;;13.96;58.83;100898.88;4860629;29;20485;-76
2021/10/25 10:05:16;;;;;;;5.80;4.80;;;;;;;14.36;57.77;100897.69;4860549;29;20401;-75
2021/10/25 10:07:44;;;;;;;7.82;5.15;;;;;;;14.52;56.35;100894.03;4860395;29;20406;-76
2021/10/25 10:10:11;;;;;;;6.38;5.10;;;;;;;14.96;55.34;100900.88;4859819;29;20517;-76
2021/10/25 10:12:39;;;;;;;6.20;5.60;;;;;;;15.56;54.01;100894.97;4846295;29;20408;-76
2021/10/25 10:15:05;;;;;;;5.78;4.95;;;;;;;15.81;53.84;100888.75;4858850;29;20418;-77
2021/10/25 10:17:53;;;;;;;5.03;4.53;;;;;;;16.08;51.88;100892.09;4860578;29;20889;-76
2021/10/25 10:20:26;;;;;;;6.03;5.43;;;;;;;15.70;52.02;100887.09;4852609;29;20418;-76
2021/10/25 10:22:53;;;;;;;5.72;5.18;;;;;;;14.84;54.65;100899.44;4857978;29;20450;-75
2021/10/25 10:25:30;;;;;;;7.20;5.43;;;;;;;13.95;57.82;100897.25;4853196;29;20412;-76
2021/10/25 10:28:11;;;;;;;5.78;5.28;;;;;;;13.24;59.99;100894.75;4860096;29;20409;-75
2021/10/25 10:30:55;;;;;;;5.32;4.82;;;;;;;12.72;61.26;100892.34;4851294;29;20422;-76
2021/10/25 10:33:39;;;;;;;7.35;5.53;;;;;;;12.41;62.71;100887.50;4858985;29;20418;-75
2021/10/25 10:36:22;;;;;;;10.37;5.70;;;;;;;12.22;63.85;100886.88;4856963;29;20410;-76
2021/10/25 10:38:51;;;;;;;7.32;5.38;;;;;;;12.11;64.31;100886.97;4859824;29;20406;-76
2021/10/25 10:41:20;;;;;;;7.45;5.05;;;;;;;11.94;65.30;100886.91;4859480;29;20414;-76
2021/10/25 10:44:04;;;;;;;10.25;5.85;;;;;;;11.82;65.14;100886.16;4859771;29;20414;-76
2021/10/25 10:46:55;;;;;;;6.65;5.35;;;;;;;11.84;65.60;100884.84;4854709;29;20434;-76
2021/10/25 10:49:26;;;;;;;7.07;5.72;;;;;;;11.94;64.19;100874.16;4857293;29;20449;-76
2021/10/25 10:52:20;;;;;;;6.18;5.53;;;;;;;12.14;64.45;100875.59;4858630;29;20493;-76
2021/10/25 10:57:40;;;;;;;7.53;5.67;;;;;;;12.34;65.42;100871.34;4859756;29;20487;-77
2021/10/25 11:00:05;;;;;;;9.23;5.60;;;;;;;12.35;64.63;100869.44;4859485;29;20390;-76
2021/10/25 11:02:31;;;;;;;7.47;5.97;;;;;;;12.29;64.93;100864.97;4855123;29;20430;-76
2021/10/25 11:05:08;;;;;;;6.13;4.68;;;;;;;12.21;65.19;100873.56;4859192;29;20778;-76
2021/10/25 11:07:40;;;;;;;7.53;5.43;;;;;;;12.13;64.97;100863.06;4859333;29;20974;-76
2021/10/25 11:10:09;;;;;;;7.18;5.50;;;;;;;12.03;65.03;100854.75;4852431;29;20446;-76
2021/10/25 11:12:43;;;;;;;6.45;5.78;;;;;;;11.96;65.87;100857.63;4853416;29;20950;-76
2021/10/25 11:15:11;;;;;;;6.95;6.28;;;;;;;11.84;66.81;100854.97;4858250;29;20433;-77
2021/10/25 11:17:36;;;;;;;12.40;6.57;;;;;;;11.80;67.05;100858.41;4858674;29;20755;-76
2021/10/25 11:20:02;;;;;;;11.47;7.30;;;;;;;11.75;67.13;100852.88;4857951;29;20425;-76
2021/10/25 11:22:43;;;;;;;8.25;6.60;;;;;;;11.69;67.76;100853.84;4858161;29;20438;-75
2021/10/25 11:25:21;;;;;;;7.95;6.72;;;;;;;11.60;68.00;100849.84;4855660;29;20425;-76
2021/10/25 11:27:48;;;;;;;8.38;6.43;;;;;;;11.56;67.82;100846.78;4858227;29;21033;-76
2021/10/25 11:30:19;;;;;;;8.05;6.20;;;;;;;11.51;68.03;100849.41;4853944;29;20442;-76
2021/10/25 11:32:45;;;;;;;11.85;6.90;;;;;;;11.49;68.43;100843.41;4858864;29;20428;-76
2021/10/25 11:35:13;;;;;;;8.80;4.82;;;;;;;11.49;67.84;100842.56;4858052;29;20525;-76
2021/10/25 11:37:46;;;;;;;7.35;6.22;;;;;;;11.46;68.76;100828.41;4845931;29;20414;-77
2021/10/25 11:40:14;;;;;;;8.32;5.28;;;;;;;11.43;68.46;100828.91;4853552;29;20421;-76
2021/10/25 11:42:42;;;;;;;6.28;5.68;;;;;;;11.45;68.64;100825.94;4855795;29;20529;-77
2021/10/25 11:45:11;;;;;;;9.63;6.47;;;;;;;11.44;68.66;100827.00;4850783;29;20444;-77
2021/10/25 11:47:43;;;;;;;7.95;5.72;;;;;;;11.43;68.31;100819.91;4852705;29;20858;-75
2021/10/25 11:50:22;;;;;;;8.57;6.50;;;;;;;11.44;68.86;100824.28;4855829;29;20438;-76
2021/10/25 11:52:58;;;;;;;9.87;5.47;;;;;;;11.44;68.39;100824.28;4857457;29;20594;-75
2021/10/25 11:55:27;;;;;;;8.50;5.40;;;;;;;11.48;68.70;100821.94;4858753;29;20414;-76
2021/10/25 11:58:25;;;;;;;6.13;5.28;;;;;;;11.55;67.74;100812.59;4857585;29;20790;-75
2021/10/25 12:00:54;;;;;;;9.05;5.82;;;;;;;11.57;68.46;100817.75;4855461;29;20462;-75
2021/10/25 12:03:24;;;;;;;10.20;5.60;;;;;;;11.56;68.35;100814.22;4860229;29;20908;-75
2021/10/25 12:05:49;;;;;;;6.15;5.30;;;;;;;11.55;68.14;100807.16;4856896;29;20941;-76
2021/10/25 12:08:16;;;;;;;7.10;5.43;;;;;;;11.57;68.04;100798.75;4860067;29;20406;-76
2021/10/25 12:10:44;;;;;;;8.25;4.45;;;;;;;11.56;67.57;100803.34;4859640;29;20437;-76
2021/10/25 12:13:10;;;;;;;6.90;5.35;;;;;;;11.61;68.12;100794.50;4861702;29;20901;-77
2021/10/25 12:15:40;;;;;;;8.27;5.80;;;;;;;11.65;67.24;100796.50;4862206;29;20492;-76
2021/10/25 12:18:07;;;;;;;8.32;5.05;;;;;;;11.70;67.18;100795.72;4859026;29;20440;-77
2021/10/25 12:20:40;;;;;;;6.30;5.13;;;;;;;11.70;67.04;100788.44;4858276;29;20418;-76
2021/10/25 12:23:05;;;;;;;8.00;5.45;;;;;;;11.72;67.44;100788.22;4870995;29;20759;-77
2021/10/25 12:25:32;;;;;;;6.77;4.43;;;;;;;11.74;67.06;100777.94;4866061;29;20417;-75
2021/10/25 12:28:11;;;;;;;4.60;4.20;;;;;;;11.74;66.91;100778.75;4865584;29;20898;-80
2021/10/25 12:30:37;;;;;;;6.47;4.37;;;;;;;11.77;67.01;100777.44;4858227;29;20442;-78
2021/10/25 12:33:03;;;;;;;5.33;4.00;;;;;;;11.72;67.18;100770.00;4864822;29;20914;-76
2021/10/25 12:35:33;;;;;;;6.68;3.97;;;;;;;11.70;67.00;100772.16;4857438;29;20425;-77
2021/10/25 12:38:01;;;;;;;8.10;4.10;;;;;;;11.74;66.45;100764.34;4859108;29;20431;-77
2021/10/25 12:40:27;;;;;;;6.68;3.40;;;;;;;11.78;65.21;100758.19;4854429;29;20426;-76
2021/10/25 12:43:07;;;;;;;10.65;3.45;;;;;;;11.82;64.67;100759.31;4859254;29;20433;-77
2021/10/25 12:45:41;;;;;;;3.35;3.05;;;;;;;11.78;64.05;100744.63;4856040;29;20940;-76
2021/10/25 12:48:10;;;;;;;4.53;2.83;;;;;;;11.88;63.26;100746.69;4861003;29;20475;-76
2021/10/25 12:50:37;;;;;;;6.07;3.40;;;;;;;11.88;63.21;100736.66;4859510;29;20481;-76
2021/10/25 12:53:11;;;;;;;5.15;3.05;;;;;;;11.89;64.31;100742.88;4858152;29;20418;-76
2021/10/25 12:55:38;;;;;;;2.85;2.70;;;;;;;11.86;64.79;100738.75;4852010;29;20441;-76
2021/10/25 12:58:12;;;;;;;9.57;7.78;;;;;;;11.85;64.05;100731.72;4842838;29;20426;-77
2021/10/25 13:00:38;;;;;;;3.47;2.60;;;;;;;11.89;64.29;100735.56;4859398;29;20430;-77
2021/10/25 13:03:11;;;;;;;5.18;2.92;;;;;;;11.93;64.37;100731.28;4851858;29;20521;-77
2021/10/25 13:05:38;;;;;;;3.28;2.67;;;;;;;11.96;63.93;100733.50;4860177;29;20450;-77
2021/10/25 13:08:08;;;;;;;2.97;2.70;;;;;;;12.00;63.67;100736.56;4860753;29;20433;-78
2021/10/25 13:10:37;;;;;;;2.43;2.23;;;;;;;12.06;63.71;100735.56;4855020;29;20978;-76
2021/10/25 13:13:05;;;;;;;7.28;2.53;;;;;;;12.08;63.29;100741.59;4858108;29;20415;-77
2021/10/25 13:15:31;;;;;;;2.80;2.50;;;;;;;12.10;63.48;100733.16;4855025;29;20843;-77
2021/10/25 13:17:59;;;;;;;4.67;2.87;;;;;;;12.13;63.81;100725.34;4858792;29;20577;-77